EDLW

Dortmund Airport

Airport
ICAO code
EDLW
IATA Code
DTM
Summary
ICAO Region
EUR
ICAO Territory
Location

Dortmund, Nordrhein-Westfalen

Serving
Dortmund
Elevation
425 ft
Coordinates
51° 31' 6" N , 7° 36' 44" E
Metar
EDLW 142220Z AUTO 16011KT 9999 // SCT110/// BKN130/// 17/13 Q1003

Runways

Designator Length Width Surface Rops
6/24 2000 45 ASP Yes/Yes

Airport map

Aerial View

SKYbrary Partners:

Safety knowledge contributed by: